Ana Sayfa
METAR-TAF:

METAR-TAF

Havaalanları :

Bahreyn, Bahreyn

Enlem: 26-16N, Boylam: 050-39E, yükseklik: 2 m

Güncel hava durumu gözlemi

Rapor saat 12:30 UTC de 15 dakika önce yapıldı.
Rüzgar güneydoğudan 8 kt
Sıcaklık 23°C
Nem 69%
Basınç 1012 hPa
Görüş mesafesi 10 km veya daha fazla
1500 m altında bulut yok ve kümülonimbus yok

METAR: OBBI 131230Z 14008KT CAVOK 23/17 Q1012 NOSIG

Saat: 15:45 (12:45 UTC)

Tahmin

Rapor saat 11:00 UTC de 1 saat ve 45 dakika önce yapıldı.
Ayın 13'si saat 12 UTC'den ayın 14'si saat 18 UTC'ye kadar geçerli Tahmin
Rüzgar güney/güneydoğudan 10 kt
Görüş mesafesi 10 km veya daha fazla
2500 ft yükseklikte parçalı bulutlu
Dönüşüyor
ayın 13'si saat 21 UTC'den ayın 13'si saat 23 UTC'ye kadar
Rüzgar kuzey/kuzeybatıdan 15 kt

TAF: OBBI 131100Z 1312/1418 16010KT 9999 SCT025 BECMG 1321/1323 33015KT

4.000'den fazla havaalanı için hava durumu gözlemleri ve tahminleri (METAR ve TAF raporları).

Kullanılabilir istasyonlar harita üzerinde sarı ve kırmızı noktalarla gösterilir.

İstasyonun adını görmek için fareyi noktanın üzerinde gezdirin.

Sonrasında hava gözlem ve tahminlerini görmek için tıklayın.

Haritayı değiştirmek için: yaklaştırmak için siyah artı işaretli yeşil düğmeye ve uzaklaştırmak için de eksi işaretli düğmeye hızla tıklayın; bitişik haritalar için yeşil okları kullanın.


METAR-TAF: